GMART KBMG-KIND
Flight info
| Callsign | GMART |
|---|---|
| Flight time | 0h 28m |
| Altitude | 2100 |
| Route | KBMG / GOSPORT / KIND |
| Aircraft | C172/L-VGD/C |
Departure
| Time | 2026-04-24 09:23 |
|---|---|
| Airport | Monroe County Airport (KBMG) |
Arrival
| Time | 2026-04-24 09:51 |
|---|---|
| Airport | Indianapolis International Airport (KIND) |
| Time | Latitude | Longitude | Altitude | Speed | Heading |
|---|---|---|---|---|---|
| 2026-04-24 09:13 | 39.14997 | -86.61386 | 846 ft | 0 kts | 271° |
| 2026-04-24 09:17 | 39.14998 | -86.61401 | 840 ft | 3 kts | 292° |
| 2026-04-24 09:18 | 39.15007 | -86.61410 | 842 ft | 0 kts | 343° |
| 2026-04-24 09:18 | 39.15037 | -86.61419 | 846 ft | 9 kts | 306° |
| 2026-04-24 09:18 | 39.15054 | -86.61509 | 846 ft | 11 kts | 299° |
| 2026-04-24 09:18 | 39.15131 | -86.61543 | 838 ft | 14 kts | 351° |
| 2026-04-24 09:19 | 39.15238 | -86.61564 | 847 ft | 17 kts | 352° |
| 2026-04-24 09:19 | 39.15352 | -86.61584 | 847 ft | 15 kts | 352° |
| 2026-04-24 09:19 | 39.15447 | -86.61602 | 839 ft | 12 kts | 344° |
| 2026-04-24 09:19 | 39.15472 | -86.61630 | 848 ft | 0 kts | 276° |
| 2026-04-24 09:20 | 39.15472 | -86.61634 | 848 ft | 3 kts | 276° |
| 2026-04-24 09:20 | 39.15473 | -86.61644 | 848 ft | 0 kts | 268° |
| 2026-04-24 09:20 | 39.15473 | -86.61646 | 848 ft | 3 kts | 266° |
| 2026-04-24 09:21 | 39.15465 | -86.61727 | 848 ft | 10 kts | 246° |
| 2026-04-24 09:21 | 39.15436 | -86.61742 | 847 ft | 0 kts | 172° |
| 2026-04-24 09:22 | 39.15234 | -86.61705 | 847 ft | 55 kts | 172° |
| 2026-04-24 09:22 | 39.14766 | -86.61590 | 952 ft | 76 kts | 169° |
| 2026-04-24 09:22 | 39.14228 | -86.61413 | 1114 ft | 83 kts | 172° |
| 2026-04-24 09:23 | 39.13639 | -86.61218 | 1282 ft | 92 kts | 171° |
| 2026-04-24 09:23 | 39.13010 | -86.61008 | 1454 ft | 95 kts | 166° |
| 2026-04-24 09:23 | 39.12684 | -86.60299 | 1634 ft | 106 kts | 82° |
| 2026-04-24 09:23 | 39.12825 | -86.59363 | 1808 ft | 106 kts | 68° |
| 2026-04-24 09:24 | 39.13346 | -86.58760 | 1989 ft | 103 kts | 28° |
| 2026-04-24 09:24 | 39.13943 | -86.58213 | 2117 ft | 111 kts | 30° |
| 2026-04-24 09:24 | 39.14644 | -86.57623 | 2107 ft | 127 kts | 19° |
| 2026-04-24 09:24 | 39.15505 | -86.57598 | 2110 ft | 124 kts | 348° |
| 2026-04-24 09:25 | 39.16343 | -86.57796 | 2108 ft | 121 kts | 339° |
| 2026-04-24 09:25 | 39.17127 | -86.58166 | 2108 ft | 119 kts | 332° |
| 2026-04-24 09:25 | 39.17895 | -86.58570 | 2110 ft | 119 kts | 332° |
| 2026-04-24 09:25 | 39.18670 | -86.58974 | 2106 ft | 120 kts | 332° |
| 2026-04-24 09:26 | 39.19448 | -86.59367 | 2104 ft | 119 kts | 334° |
| 2026-04-24 09:26 | 39.20226 | -86.59739 | 2105 ft | 119 kts | 334° |
| 2026-04-24 09:26 | 39.21003 | -86.60109 | 2108 ft | 120 kts | 334° |
| 2026-04-24 09:26 | 39.21798 | -86.60494 | 2092 ft | 124 kts | 334° |
| 2026-04-24 09:27 | 39.22610 | -86.60886 | 2092 ft | 124 kts | 334° |
| 2026-04-24 09:27 | 39.23412 | -86.61281 | 2092 ft | 123 kts | 334° |
| 2026-04-24 09:27 | 39.24201 | -86.61680 | 2091 ft | 124 kts | 334° |
| 2026-04-24 09:27 | 39.25006 | -86.62082 | 2090 ft | 124 kts | 334° |
| 2026-04-24 09:28 | 39.25810 | -86.62466 | 2088 ft | 122 kts | 335° |
| 2026-04-24 09:28 | 39.26603 | -86.62858 | 2085 ft | 121 kts | 334° |
| 2026-04-24 09:28 | 39.27387 | -86.63244 | 2091 ft | 122 kts | 334° |
| 2026-04-24 09:28 | 39.28186 | -86.63627 | 2094 ft | 122 kts | 334° |
| 2026-04-24 09:29 | 39.28972 | -86.63999 | 2101 ft | 118 kts | 334° |
| 2026-04-24 09:29 | 39.29739 | -86.64362 | 2100 ft | 118 kts | 334° |
| 2026-04-24 09:29 | 39.30509 | -86.64737 | 2101 ft | 118 kts | 334° |
| 2026-04-24 09:29 | 39.31282 | -86.65113 | 2101 ft | 119 kts | 334° |
| 2026-04-24 09:30 | 39.32062 | -86.65496 | 2099 ft | 120 kts | 334° |
| 2026-04-24 09:30 | 39.32851 | -86.65876 | 2109 ft | 123 kts | 334° |
| 2026-04-24 09:30 | 39.33656 | -86.66244 | 2101 ft | 123 kts | 343° |
| 2026-04-24 09:30 | 39.34494 | -86.65924 | 2096 ft | 134 kts | 31° |
| 2026-04-24 09:31 | 39.35191 | -86.65114 | 2103 ft | 135 kts | 39° |
| 2026-04-24 09:31 | 39.35869 | -86.64296 | 2105 ft | 132 kts | 39° |
| 2026-04-24 09:31 | 39.36537 | -86.63476 | 2102 ft | 131 kts | 39° |
| 2026-04-24 09:31 | 39.37191 | -86.62662 | 2106 ft | 131 kts | 39° |
| 2026-04-24 09:32 | 39.37635 | -86.62120 | 2109 ft | 134 kts | 39° |
| 2026-04-24 09:32 | 39.38314 | -86.61282 | 2107 ft | 135 kts | 39° |
| 2026-04-24 09:32 | 39.38988 | -86.60449 | 2105 ft | 132 kts | 39° |
| 2026-04-24 09:32 | 39.39646 | -86.59626 | 2104 ft | 132 kts | 39° |
| 2026-04-24 09:33 | 39.40310 | -86.58807 | 2100 ft | 131 kts | 40° |
| 2026-04-24 09:33 | 39.40971 | -86.58004 | 2102 ft | 129 kts | 38° |
| 2026-04-24 09:33 | 39.41615 | -86.57192 | 2106 ft | 129 kts | 40° |
| 2026-04-24 09:33 | 39.42262 | -86.56391 | 2101 ft | 126 kts | 39° |
| 2026-04-24 09:34 | 39.42889 | -86.55603 | 2103 ft | 126 kts | 39° |
| 2026-04-24 09:34 | 39.43523 | -86.54828 | 2102 ft | 125 kts | 38° |
| 2026-04-24 09:34 | 39.44146 | -86.54050 | 2103 ft | 124 kts | 39° |
| 2026-04-24 09:34 | 39.44777 | -86.53278 | 2100 ft | 125 kts | 39° |
| 2026-04-24 09:35 | 39.45411 | -86.52503 | 2101 ft | 125 kts | 40° |
| 2026-04-24 09:35 | 39.46051 | -86.51741 | 2099 ft | 125 kts | 38° |
| 2026-04-24 09:35 | 39.46676 | -86.50976 | 2103 ft | 123 kts | 40° |
| 2026-04-24 09:35 | 39.47300 | -86.50219 | 2100 ft | 123 kts | 39° |
| 2026-04-24 09:36 | 39.47913 | -86.49461 | 2102 ft | 121 kts | 40° |
| 2026-04-24 09:36 | 39.48528 | -86.48720 | 2103 ft | 121 kts | 38° |
| 2026-04-24 09:36 | 39.49134 | -86.47953 | 2103 ft | 122 kts | 40° |
| 2026-04-24 09:36 | 39.49750 | -86.47196 | 2105 ft | 122 kts | 39° |
| 2026-04-24 09:37 | 39.50367 | -86.46431 | 2106 ft | 124 kts | 39° |
| 2026-04-24 09:37 | 39.50979 | -86.45676 | 2108 ft | 122 kts | 38° |
| 2026-04-24 09:37 | 39.51589 | -86.44902 | 2106 ft | 124 kts | 40° |
| 2026-04-24 09:37 | 39.52214 | -86.44124 | 2105 ft | 125 kts | 39° |
| 2026-04-24 09:38 | 39.52832 | -86.43335 | 2106 ft | 124 kts | 39° |
| 2026-04-24 09:38 | 39.53450 | -86.42558 | 2106 ft | 125 kts | 39° |
| 2026-04-24 09:38 | 39.54074 | -86.41770 | 2108 ft | 126 kts | 39° |
| 2026-04-24 09:38 | 39.54702 | -86.40976 | 2108 ft | 127 kts | 39° |
| 2026-04-24 09:39 | 39.55334 | -86.40183 | 2105 ft | 126 kts | 40° |
| 2026-04-24 09:39 | 39.55971 | -86.39405 | 2105 ft | 125 kts | 39° |
| 2026-04-24 09:39 | 39.56601 | -86.38626 | 2106 ft | 126 kts | 39° |
| 2026-04-24 09:39 | 39.57232 | -86.37840 | 2107 ft | 125 kts | 40° |
| 2026-04-24 09:40 | 39.57871 | -86.37059 | 2108 ft | 127 kts | 39° |
| 2026-04-24 09:40 | 39.58508 | -86.36272 | 2108 ft | 126 kts | 39° |
| 2026-04-24 09:40 | 39.59141 | -86.35482 | 2110 ft | 127 kts | 40° |
| 2026-04-24 09:40 | 39.59779 | -86.34692 | 2106 ft | 126 kts | 39° |
| 2026-04-24 09:41 | 39.60410 | -86.33919 | 2107 ft | 123 kts | 40° |
| 2026-04-24 09:41 | 39.61033 | -86.33165 | 2104 ft | 121 kts | 38° |
| 2026-04-24 09:41 | 39.61655 | -86.32410 | 2107 ft | 124 kts | 39° |
| 2026-04-24 09:41 | 39.62295 | -86.31626 | 2063 ft | 129 kts | 39° |
| 2026-04-24 09:42 | 39.62960 | -86.30819 | 1972 ft | 133 kts | 39° |
| 2026-04-24 09:42 | 39.63628 | -86.29994 | 1873 ft | 135 kts | 39° |
| 2026-04-24 09:42 | 39.64296 | -86.29154 | 1815 ft | 132 kts | 39° |
| 2026-04-24 09:42 | 39.64950 | -86.28341 | 1813 ft | 129 kts | 39° |
| 2026-04-24 09:43 | 39.65570 | -86.27554 | 1802 ft | 117 kts | 39° |
| 2026-04-24 09:43 | 39.66117 | -86.26859 | 1796 ft | 105 kts | 39° |
| 2026-04-24 09:43 | 39.66623 | -86.26213 | 1798 ft | 100 kts | 39° |
| 2026-04-24 09:43 | 39.67115 | -86.25571 | 1799 ft | 102 kts | 39° |
| 2026-04-24 09:44 | 39.67630 | -86.24910 | 1803 ft | 108 kts | 39° |
| 2026-04-24 09:44 | 39.68170 | -86.24226 | 1809 ft | 109 kts | 39° |
| 2026-04-24 09:44 | 39.68713 | -86.23542 | 1813 ft | 109 kts | 39° |
| 2026-04-24 09:44 | 39.69258 | -86.22838 | 1817 ft | 112 kts | 40° |
| 2026-04-24 09:45 | 39.69813 | -86.22137 | 1814 ft | 110 kts | 40° |
| 2026-04-24 09:45 | 39.70384 | -86.21500 | 1804 ft | 104 kts | 15° |
| 2026-04-24 09:45 | 39.70974 | -86.21746 | 1812 ft | 91 kts | 308° |
| 2026-04-24 09:45 | 39.71468 | -86.22296 | 1813 ft | 96 kts | 319° |
| 2026-04-24 09:46 | 39.72006 | -86.22810 | 1817 ft | 97 kts | 319° |
| 2026-04-24 09:46 | 39.72542 | -86.23331 | 1814 ft | 98 kts | 318° |
| 2026-04-24 09:46 | 39.73084 | -86.23851 | 1804 ft | 96 kts | 318° |
| 2026-04-24 09:46 | 39.73627 | -86.24361 | 1803 ft | 96 kts | 319° |
| 2026-04-24 09:47 | 39.74165 | -86.24873 | 1803 ft | 95 kts | 318° |
| 2026-04-24 09:47 | 39.74689 | -86.25377 | 1803 ft | 92 kts | 318° |
| 2026-04-24 09:47 | 39.75200 | -86.25863 | 1799 ft | 90 kts | 318° |
| 2026-04-24 09:47 | 39.75710 | -86.26333 | 1796 ft | 90 kts | 318° |
| 2026-04-24 09:48 | 39.76221 | -86.26796 | 1794 ft | 89 kts | 318° |
| 2026-04-24 09:48 | 39.76716 | -86.27268 | 1790 ft | 88 kts | 318° |
| 2026-04-24 09:48 | 39.77207 | -86.27744 | 1792 ft | 89 kts | 318° |
| 2026-04-24 09:48 | 39.77592 | -86.28332 | 1791 ft | 87 kts | 272° |
| 2026-04-24 09:49 | 39.77277 | -86.28983 | 1795 ft | 88 kts | 231° |
| 2026-04-24 09:49 | 39.76868 | -86.29588 | 1803 ft | 90 kts | 232° |
| 2026-04-24 09:49 | 39.76437 | -86.30214 | 1766 ft | 95 kts | 233° |
| 2026-04-24 09:49 | 39.75985 | -86.30866 | 1719 ft | 98 kts | 232° |
| 2026-04-24 09:50 | 39.75529 | -86.31507 | 1646 ft | 95 kts | 225° |
| 2026-04-24 09:50 | 39.74867 | -86.31498 | 1559 ft | 111 kts | 147° |
| 2026-04-24 09:50 | 39.74381 | -86.30757 | 1517 ft | 99 kts | 124° |
| 2026-04-24 09:50 | 39.74165 | -86.30000 | 1300 ft | 84 kts | 110° |
| 2026-04-24 09:51 | 39.73841 | -86.29405 | 1041 ft | 79 kts | 141° |
| 2026-04-24 09:51 | 39.73465 | -86.28926 | 837 ft | 72 kts | 142° |
| 2026-04-24 09:51 | 39.73159 | -86.28540 | 787 ft | 51 kts | 136° |
| 2026-04-24 09:51 | 39.73032 | -86.28377 | 791 ft | 16 kts | 135° |
| 2026-04-24 09:52 | 39.73035 | -86.28261 | 790 ft | 14 kts | 55° |
| 2026-04-24 09:52 | 39.73068 | -86.28213 | 791 ft | 3 kts | 42° |
| 2026-04-24 09:52 | 39.73083 | -86.28195 | 791 ft | 4 kts | 46° |
| 2026-04-24 09:52 | 39.73120 | -86.28145 | 794 ft | 11 kts | 44° |
| 2026-04-24 09:53 | 39.73195 | -86.28064 | 797 ft | 16 kts | 11° |
| 2026-04-24 09:53 | 39.73280 | -86.28157 | 794 ft | 18 kts | 310° |
| 2026-04-24 09:53 | 39.73377 | -86.28199 | 794 ft | 12 kts | 29° |
| 2026-04-24 09:53 | 39.73375 | -86.28146 | 795 ft | 0 kts | 213° |
| 2026-04-24 09:54 | 39.73374 | -86.28148 | 795 ft | 0 kts | 230° |